sensor_id;sensor_type;location;lat;lon;timestamp;P1;durP1;ratioP1;P2;durP2;ratioP2
27333;SDS011;14817;57.104;-2.094;2023-07-09T00:00:45;16.52;;;6.88;;
27333;SDS011;14817;57.104;-2.094;2023-07-09T00:03:13;27.25;;;6.63;;
27333;SDS011;14817;57.104;-2.094;2023-07-09T00:05:40;19.65;;;7.07;;
27333;SDS011;14817;57.104;-2.094;2023-07-09T00:10:55;22.90;;;8.20;;
27333;SDS011;14817;57.104;-2.094;2023-07-09T00:13:23;22.50;;;6.93;;
27333;SDS011;14817;57.104;-2.094;2023-07-09T00:15:53;18.92;;;6.75;;
27333;SDS011;14817;57.104;-2.094;2023-07-09T00:18:24;20.67;;;6.82;;
27333;SDS011;14817;57.104;-2.094;2023-07-09T00:20:51;14.55;;;5.95;;
27333;SDS011;14817;57.104;-2.094;2023-07-09T00:23:18;23.30;;;7.68;;
27333;SDS011;14817;57.104;-2.094;2023-07-09T00:25:46;17.30;;;6.40;;
27333;SDS011;14817;57.104;-2.094;2023-07-09T00:28:14;19.98;;;7.32;;
27333;SDS011;14817;57.104;-2.094;2023-07-09T00:30:44;16.38;;;6.20;;
27333;SDS011;14817;57.104;-2.094;2023-07-09T00:33:12;19.50;;;6.85;;
27333;SDS011;14817;57.104;-2.094;2023-07-09T00:35:46;24.15;;;7.10;;
27333;SDS011;14817;57.104;-2.094;2023-07-09T00:38:17;22.92;;;7.45;;
27333;SDS011;14817;57.104;-2.094;2023-07-09T00:41:05;19.90;;;7.47;;
27333;SDS011;14817;57.104;-2.094;2023-07-09T00:43:37;17.17;;;6.13;;
27333;SDS011;14817;57.104;-2.094;2023-07-09T00:48:47;21.35;;;6.75;;
27333;SDS011;14817;57.104;-2.094;2023-07-09T00:51:19;15.02;;;5.85;;
27333;SDS011;14817;57.104;-2.094;2023-07-09T00:53:49;24.35;;;6.60;;
27333;SDS011;14817;57.104;-2.094;2023-07-09T00:56:33;19.50;;;6.22;;
27333;SDS011;14817;57.104;-2.094;2023-07-09T00:59:08;15.38;;;6.28;;
27333;SDS011;14817;57.104;-2.094;2023-07-09T01:01:41;22.17;;;8.32;;
27333;SDS011;14817;57.104;-2.094;2023-07-09T01:04:10;20.30;;;7.38;;
27333;SDS011;14817;57.104;-2.094;2023-07-09T01:06:39;22.77;;;6.78;;
27333;SDS011;14817;57.104;-2.094;2023-07-09T01:09:11;15.50;;;6.63;;
27333;SDS011;14817;57.104;-2.094;2023-07-09T01:11:38;21.05;;;6.38;;
27333;SDS011;14817;57.104;-2.094;2023-07-09T01:14:07;14.70;;;6.03;;
27333;SDS011;14817;57.104;-2.094;2023-07-09T01:19:05;16.40;;;6.40;;
27333;SDS011;14817;57.104;-2.094;2023-07-09T01:21:33;23.15;;;7.38;;
27333;SDS011;14817;57.104;-2.094;2023-07-09T01:24:11;17.10;;;6.68;;
27333;SDS011;14817;57.104;-2.094;2023-07-09T01:26:40;22.30;;;6.25;;
27333;SDS011;14817;57.104;-2.094;2023-07-09T01:29:10;21.02;;;7.50;;
27333;SDS011;14817;57.104;-2.094;2023-07-09T01:31:38;17.73;;;6.85;;
27333;SDS011;14817;57.104;-2.094;2023-07-09T01:34:05;15.32;;;5.72;;
27333;SDS011;14817;57.104;-2.094;2023-07-09T01:36:32;14.85;;;6.18;;
27333;SDS011;14817;57.104;-2.094;2023-07-09T01:39:01;17.20;;;6.35;;
27333;SDS011;14817;57.104;-2.094;2023-07-09T01:41:28;22.63;;;6.60;;
27333;SDS011;14817;57.104;-2.094;2023-07-09T01:43:55;18.13;;;5.57;;
27333;SDS011;14817;57.104;-2.094;2023-07-09T01:46:23;17.42;;;6.38;;
27333;SDS011;14817;57.104;-2.094;2023-07-09T01:48:49;18.15;;;6.50;;
27333;SDS011;14817;57.104;-2.094;2023-07-09T01:51:19;18.15;;;6.65;;
27333;SDS011;14817;57.104;-2.094;2023-07-09T01:53:46;16.83;;;5.20;;
27333;SDS011;14817;57.104;-2.094;2023-07-09T01:56:13;17.52;;;6.15;;
27333;SDS011;14817;57.104;-2.094;2023-07-09T01:58:40;13.65;;;5.47;;
27333;SDS011;14817;57.104;-2.094;2023-07-09T02:01:10;22.45;;;8.27;;
27333;SDS011;14817;57.104;-2.094;2023-07-09T02:03:37;23.92;;;8.88;;
27333;SDS011;14817;57.104;-2.094;2023-07-09T02:06:04;20.63;;;6.97;;
27333;SDS011;14817;57.104;-2.094;2023-07-09T02:08:36;17.42;;;7.00;;
27333;SDS011;14817;57.104;-2.094;2023-07-09T02:11:03;15.18;;;6.05;;
27333;SDS011;14817;57.104;-2.094;2023-07-09T02:13:30;18.42;;;6.75;;
27333;SDS011;14817;57.104;-2.094;2023-07-09T02:15:57;16.17;;;6.25;;
27333;SDS011;14817;57.104;-2.094;2023-07-09T02:18:25;18.08;;;6.68;;
27333;SDS011;14817;57.104;-2.094;2023-07-09T02:20:55;18.05;;;6.53;;
27333;SDS011;14817;57.104;-2.094;2023-07-09T02:23:25;17.25;;;6.53;;
27333;SDS011;14817;57.104;-2.094;2023-07-09T02:25:53;17.73;;;6.45;;
27333;SDS011;14817;57.104;-2.094;2023-07-09T02:28:20;18.17;;;6.60;;
27333;SDS011;14817;57.104;-2.094;2023-07-09T02:30:47;13.48;;;5.78;;
27333;SDS011;14817;57.104;-2.094;2023-07-09T02:33:14;22.15;;;7.53;;
27333;SDS011;14817;57.104;-2.094;2023-07-09T02:35:41;17.27;;;5.88;;
27333;SDS011;14817;57.104;-2.094;2023-07-09T02:38:08;19.30;;;7.57;;
27333;SDS011;14817;57.104;-2.094;2023-07-09T02:40:35;19.60;;;6.43;;
27333;SDS011;14817;57.104;-2.094;2023-07-09T02:43:03;21.88;;;7.30;;
27333;SDS011;14817;57.104;-2.094;2023-07-09T02:45:29;19.40;;;7.28;;
27333;SDS011;14817;57.104;-2.094;2023-07-09T02:47:57;19.98;;;6.78;;
27333;SDS011;14817;57.104;-2.094;2023-07-09T02:50:24;17.05;;;6.95;;
27333;SDS011;14817;57.104;-2.094;2023-07-09T02:52:51;18.10;;;6.80;;
27333;SDS011;14817;57.104;-2.094;2023-07-09T02:55:17;16.17;;;6.35;;
27333;SDS011;14817;57.104;-2.094;2023-07-09T02:57:44;19.80;;;7.40;;
27333;SDS011;14817;57.104;-2.094;2023-07-09T03:00:11;18.45;;;6.18;;
27333;SDS011;14817;57.104;-2.094;2023-07-09T03:02:39;13.52;;;6.47;;
27333;SDS011;14817;57.104;-2.094;2023-07-09T03:05:05;18.70;;;6.72;;
27333;SDS011;14817;57.104;-2.094;2023-07-09T03:07:32;18.33;;;6.45;;
27333;SDS011;14817;57.104;-2.094;2023-07-09T03:09:59;12.45;;;6.35;;
27333;SDS011;14817;57.104;-2.094;2023-07-09T03:12:26;19.50;;;7.78;;
27333;SDS011;14817;57.104;-2.094;2023-07-09T03:14:53;21.50;;;7.25;;
27333;SDS011;14817;57.104;-2.094;2023-07-09T03:17:20;26.42;;;7.78;;
27333;SDS011;14817;57.104;-2.094;2023-07-09T03:19:47;19.27;;;6.97;;
27333;SDS011;14817;57.104;-2.094;2023-07-09T03:22:14;22.38;;;6.63;;
27333;SDS011;14817;57.104;-2.094;2023-07-09T03:24:41;17.95;;;7.03;;
27333;SDS011;14817;57.104;-2.094;2023-07-09T03:27:08;21.60;;;7.90;;
27333;SDS011;14817;57.104;-2.094;2023-07-09T03:29:35;22.83;;;7.47;;
27333;SDS011;14817;57.104;-2.094;2023-07-09T03:32:02;20.70;;;8.05;;
27333;SDS011;14817;57.104;-2.094;2023-07-09T03:34:29;24.10;;;7.50;;
27333;SDS011;14817;57.104;-2.094;2023-07-09T03:36:56;18.52;;;6.43;;
27333;SDS011;14817;57.104;-2.094;2023-07-09T03:39:23;20.83;;;6.97;;
27333;SDS011;14817;57.104;-2.094;2023-07-09T03:41:50;18.35;;;6.55;;
27333;SDS011;14817;57.104;-2.094;2023-07-09T03:44:16;27.00;;;8.00;;
27333;SDS011;14817;57.104;-2.094;2023-07-09T03:46:43;19.40;;;7.20;;
27333;SDS011;14817;57.104;-2.094;2023-07-09T03:49:10;25.48;;;6.57;;
27333;SDS011;14817;57.104;-2.094;2023-07-09T03:51:37;29.90;;;7.70;;
27333;SDS011;14817;57.104;-2.094;2023-07-09T03:54:04;22.63;;;7.40;;
27333;SDS011;14817;57.104;-2.094;2023-07-09T03:56:31;27.42;;;8.38;;
27333;SDS011;14817;57.104;-2.094;2023-07-09T03:58:58;29.38;;;8.43;;
27333;SDS011;14817;57.104;-2.094;2023-07-09T04:01:25;21.20;;;7.18;;
27333;SDS011;14817;57.104;-2.094;2023-07-09T04:03:52;22.65;;;7.53;;
27333;SDS011;14817;57.104;-2.094;2023-07-09T04:06:20;25.30;;;7.50;;
27333;SDS011;14817;57.104;-2.094;2023-07-09T04:08:47;25.95;;;7.55;;
27333;SDS011;14817;57.104;-2.094;2023-07-09T04:11:14;22.25;;;7.75;;
27333;SDS011;14817;57.104;-2.094;2023-07-09T04:13:40;22.23;;;7.35;;
27333;SDS011;14817;57.104;-2.094;2023-07-09T04:16:08;21.40;;;7.20;;
27333;SDS011;14817;57.104;-2.094;2023-07-09T04:18:36;25.30;;;8.00;;
27333;SDS011;14817;57.104;-2.094;2023-07-09T04:21:04;24.85;;;8.38;;
27333;SDS011;14817;57.104;-2.094;2023-07-09T04:23:31;20.85;;;6.90;;
27333;SDS011;14817;57.104;-2.094;2023-07-09T04:25:58;27.23;;;8.77;;
27333;SDS011;14817;57.104;-2.094;2023-07-09T04:28:25;22.77;;;7.88;;
27333;SDS011;14817;57.104;-2.094;2023-07-09T04:30:51;20.48;;;7.25;;
27333;SDS011;14817;57.104;-2.094;2023-07-09T04:33:19;25.58;;;7.53;;
27333;SDS011;14817;57.104;-2.094;2023-07-09T04:35:47;21.33;;;7.18;;
27333;SDS011;14817;57.104;-2.094;2023-07-09T04:38:15;35.35;;;8.48;;
27333;SDS011;14817;57.104;-2.094;2023-07-09T04:40:42;29.15;;;8.60;;
27333;SDS011;14817;57.104;-2.094;2023-07-09T04:43:09;30.15;;;8.77;;
27333;SDS011;14817;57.104;-2.094;2023-07-09T04:45:36;33.72;;;7.93;;
27333;SDS011;14817;57.104;-2.094;2023-07-09T04:48:03;25.83;;;7.75;;
27333;SDS011;14817;57.104;-2.094;2023-07-09T04:50:31;23.20;;;7.53;;
27333;SDS011;14817;57.104;-2.094;2023-07-09T04:52:58;27.50;;;8.57;;
27333;SDS011;14817;57.104;-2.094;2023-07-09T04:55:25;25.77;;;8.02;;
27333;SDS011;14817;57.104;-2.094;2023-07-09T04:57:53;22.85;;;7.93;;
27333;SDS011;14817;57.104;-2.094;2023-07-09T05:00:20;23.67;;;7.35;;
27333;SDS011;14817;57.104;-2.094;2023-07-09T05:02:47;27.67;;;8.98;;
27333;SDS011;14817;57.104;-2.094;2023-07-09T05:05:14;22.98;;;7.10;;
27333;SDS011;14817;57.104;-2.094;2023-07-09T05:07:41;23.10;;;7.85;;
27333;SDS011;14817;57.104;-2.094;2023-07-09T05:10:08;23.17;;;7.55;;
27333;SDS011;14817;57.104;-2.094;2023-07-09T05:12:35;28.52;;;8.00;;
27333;SDS011;14817;57.104;-2.094;2023-07-09T05:15:02;25.95;;;7.72;;
27333;SDS011;14817;57.104;-2.094;2023-07-09T05:17:29;29.33;;;8.43;;
27333;SDS011;14817;57.104;-2.094;2023-07-09T05:19:56;31.90;;;7.72;;
27333;SDS011;14817;57.104;-2.094;2023-07-09T05:22:22;25.20;;;7.40;;
27333;SDS011;14817;57.104;-2.094;2023-07-09T05:24:49;20.48;;;7.15;;
27333;SDS011;14817;57.104;-2.094;2023-07-09T05:27:16;34.88;;;8.07;;
27333;SDS011;14817;57.104;-2.094;2023-07-09T05:29:43;35.00;;;8.35;;
27333;SDS011;14817;57.104;-2.094;2023-07-09T05:32:09;22.48;;;7.82;;
27333;SDS011;14817;57.104;-2.094;2023-07-09T05:34:36;27.35;;;8.00;;
27333;SDS011;14817;57.104;-2.094;2023-07-09T05:37:03;30.10;;;8.40;;
27333;SDS011;14817;57.104;-2.094;2023-07-09T05:39:30;34.40;;;8.77;;
27333;SDS011;14817;57.104;-2.094;2023-07-09T05:41:57;25.38;;;8.07;;
27333;SDS011;14817;57.104;-2.094;2023-07-09T05:44:23;22.10;;;7.82;;
27333;SDS011;14817;57.104;-2.094;2023-07-09T05:46:50;24.95;;;8.52;;
27333;SDS011;14817;57.104;-2.094;2023-07-09T05:49:17;25.30;;;7.75;;
27333;SDS011;14817;57.104;-2.094;2023-07-09T05:51:44;27.33;;;8.45;;
27333;SDS011;14817;57.104;-2.094;2023-07-09T05:54:11;23.73;;;8.57;;
27333;SDS011;14817;57.104;-2.094;2023-07-09T05:56:38;31.08;;;8.88;;
27333;SDS011;14817;57.104;-2.094;2023-07-09T05:59:06;22.45;;;6.63;;
27333;SDS011;14817;57.104;-2.094;2023-07-09T06:01:32;15.38;;;6.75;;
27333;SDS011;14817;57.104;-2.094;2023-07-09T06:03:59;23.08;;;7.30;;
27333;SDS011;14817;57.104;-2.094;2023-07-09T06:06:27;22.52;;;7.80;;
27333;SDS011;14817;57.104;-2.094;2023-07-09T06:08:53;19.35;;;7.38;;
27333;SDS011;14817;57.104;-2.094;2023-07-09T06:11:21;23.05;;;8.68;;
27333;SDS011;14817;57.104;-2.094;2023-07-09T06:13:48;26.70;;;7.25;;
27333;SDS011;14817;57.104;-2.094;2023-07-09T06:16:15;22.98;;;7.32;;
27333;SDS011;14817;57.104;-2.094;2023-07-09T06:18:42;22.17;;;7.30;;
27333;SDS011;14817;57.104;-2.094;2023-07-09T06:21:09;22.42;;;7.28;;
27333;SDS011;14817;57.104;-2.094;2023-07-09T06:23:38;20.85;;;8.20;;
27333;SDS011;14817;57.104;-2.094;2023-07-09T06:26:05;27.10;;;8.13;;
27333;SDS011;14817;57.104;-2.094;2023-07-09T06:28:32;27.35;;;7.90;;
27333;SDS011;14817;57.104;-2.094;2023-07-09T06:30:59;31.40;;;8.60;;
27333;SDS011;14817;57.104;-2.094;2023-07-09T06:33:27;27.20;;;8.63;;
27333;SDS011;14817;57.104;-2.094;2023-07-09T06:35:56;32.35;;;9.38;;
27333;SDS011;14817;57.104;-2.094;2023-07-09T06:38:25;27.23;;;7.30;;
27333;SDS011;14817;57.104;-2.094;2023-07-09T06:40:53;31.73;;;8.82;;
27333;SDS011;14817;57.104;-2.094;2023-07-09T06:43:20;30.90;;;8.23;;
27333;SDS011;14817;57.104;-2.094;2023-07-09T06:45:58;23.27;;;7.50;;
27333;SDS011;14817;57.104;-2.094;2023-07-09T06:48:27;29.42;;;8.27;;
27333;SDS011;14817;57.104;-2.094;2023-07-09T06:50:55;24.13;;;7.78;;
27333;SDS011;14817;57.104;-2.094;2023-07-09T06:53:23;27.55;;;8.70;;
27333;SDS011;14817;57.104;-2.094;2023-07-09T06:55:51;22.50;;;8.35;;
27333;SDS011;14817;57.104;-2.094;2023-07-09T06:58:22;25.30;;;8.02;;
27333;SDS011;14817;57.104;-2.094;2023-07-09T07:00:52;29.70;;;8.73;;
27333;SDS011;14817;57.104;-2.094;2023-07-09T07:03:18;23.38;;;8.25;;
27333;SDS011;14817;57.104;-2.094;2023-07-09T07:05:46;29.20;;;8.85;;
27333;SDS011;14817;57.104;-2.094;2023-07-09T07:08:20;27.77;;;8.65;;
27333;SDS011;14817;57.104;-2.094;2023-07-09T07:10:50;27.67;;;7.68;;
27333;SDS011;14817;57.104;-2.094;2023-07-09T07:13:25;34.83;;;9.13;;
27333;SDS011;14817;57.104;-2.094;2023-07-09T07:15:55;29.63;;;8.77;;
27333;SDS011;14817;57.104;-2.094;2023-07-09T07:18:22;32.33;;;9.43;;
27333;SDS011;14817;57.104;-2.094;2023-07-09T07:20:50;35.85;;;9.52;;
27333;SDS011;14817;57.104;-2.094;2023-07-09T07:23:17;36.20;;;8.52;;
27333;SDS011;14817;57.104;-2.094;2023-07-09T07:25:45;36.35;;;9.35;;
27333;SDS011;14817;57.104;-2.094;2023-07-09T07:28:13;31.13;;;8.52;;
27333;SDS011;14817;57.104;-2.094;2023-07-09T07:30:40;22.90;;;8.50;;
27333;SDS011;14817;57.104;-2.094;2023-07-09T07:33:06;33.33;;;8.20;;
27333;SDS011;14817;57.104;-2.094;2023-07-09T07:35:33;23.35;;;8.00;;
27333;SDS011;14817;57.104;-2.094;2023-07-09T07:38:00;27.17;;;8.07;;
27333;SDS011;14817;57.104;-2.094;2023-07-09T07:40:27;35.92;;;9.43;;
27333;SDS011;14817;57.104;-2.094;2023-07-09T07:42:54;22.83;;;8.27;;
27333;SDS011;14817;57.104;-2.094;2023-07-09T07:45:21;31.80;;;8.60;;
27333;SDS011;14817;57.104;-2.094;2023-07-09T07:47:48;33.13;;;15.35;;
27333;SDS011;14817;57.104;-2.094;2023-07-09T07:50:18;33.90;;;9.93;;
27333;SDS011;14817;57.104;-2.094;2023-07-09T07:52:45;18.05;;;7.68;;
27333;SDS011;14817;57.104;-2.094;2023-07-09T07:55:12;22.55;;;8.73;;
27333;SDS011;14817;57.104;-2.094;2023-07-09T07:57:44;31.17;;;8.85;;
27333;SDS011;14817;57.104;-2.094;2023-07-09T08:00:11;33.83;;;9.32;;
27333;SDS011;14817;57.104;-2.094;2023-07-09T08:02:38;24.83;;;8.50;;
27333;SDS011;14817;57.104;-2.094;2023-07-09T08:05:05;19.13;;;7.60;;
27333;SDS011;14817;57.104;-2.094;2023-07-09T08:07:32;34.30;;;8.75;;
27333;SDS011;14817;57.104;-2.094;2023-07-09T08:09:59;25.00;;;8.38;;
27333;SDS011;14817;57.104;-2.094;2023-07-09T08:12:26;29.27;;;8.90;;
27333;SDS011;14817;57.104;-2.094;2023-07-09T08:14:53;26.38;;;8.98;;
27333;SDS011;14817;57.104;-2.094;2023-07-09T08:17:20;28.25;;;8.57;;
27333;SDS011;14817;57.104;-2.094;2023-07-09T08:19:48;30.02;;;8.50;;
27333;SDS011;14817;57.104;-2.094;2023-07-09T08:22:16;23.15;;;8.43;;
27333;SDS011;14817;57.104;-2.094;2023-07-09T08:24:43;34.17;;;9.65;;
27333;SDS011;14817;57.104;-2.094;2023-07-09T08:27:11;31.92;;;8.82;;
27333;SDS011;14817;57.104;-2.094;2023-07-09T08:29:38;23.52;;;8.88;;
27333;SDS011;14817;57.104;-2.094;2023-07-09T08:32:06;31.23;;;8.93;;
27333;SDS011;14817;57.104;-2.094;2023-07-09T08:34:34;21.77;;;7.50;;
27333;SDS011;14817;57.104;-2.094;2023-07-09T08:37:01;29.00;;;8.90;;
27333;SDS011;14817;57.104;-2.094;2023-07-09T08:39:28;34.05;;;9.23;;
27333;SDS011;14817;57.104;-2.094;2023-07-09T08:42:03;36.38;;;10.35;;
27333;SDS011;14817;57.104;-2.094;2023-07-09T08:50:02;32.45;;;9.07;;
27333;SDS011;14817;57.104;-2.094;2023-07-09T08:52:38;33.10;;;10.13;;
27333;SDS011;14817;57.104;-2.094;2023-07-09T08:57:41;35.88;;;10.70;;
27333;SDS011;14817;57.104;-2.094;2023-07-09T09:03:14;23.17;;;10.18;;
27333;SDS011;14817;57.104;-2.094;2023-07-09T09:05:50;27.45;;;11.45;;
27333;SDS011;14817;57.104;-2.094;2023-07-09T09:10:57;23.02;;;8.75;;
27333;SDS011;14817;57.104;-2.094;2023-07-09T09:13:34;31.30;;;10.60;;
27333;SDS011;14817;57.104;-2.094;2023-07-09T09:16:04;26.58;;;10.48;;
27333;SDS011;14817;57.104;-2.094;2023-07-09T09:18:40;35.85;;;16.42;;
27333;SDS011;14817;57.104;-2.094;2023-07-09T09:21:19;32.00;;;17.55;;
27333;SDS011;14817;57.104;-2.094;2023-07-09T09:23:58;30.30;;;14.23;;
27333;SDS011;14817;57.104;-2.094;2023-07-09T09:26:38;29.23;;;11.88;;
27333;SDS011;14817;57.104;-2.094;2023-07-09T09:29:12;24.60;;;11.00;;
27333;SDS011;14817;57.104;-2.094;2023-07-09T09:31:45;21.23;;;10.68;;
27333;SDS011;14817;57.104;-2.094;2023-07-09T09:34:19;21.05;;;9.98;;
27333;SDS011;14817;57.104;-2.094;2023-07-09T09:36:48;27.02;;;11.90;;
27333;SDS011;14817;57.104;-2.094;2023-07-09T09:39:16;22.05;;;10.27;;
27333;SDS011;14817;57.104;-2.094;2023-07-09T09:41:44;27.48;;;11.40;;
27333;SDS011;14817;57.104;-2.094;2023-07-09T09:44:33;25.98;;;11.88;;
27333;SDS011;14817;57.104;-2.094;2023-07-09T09:46:59;23.35;;;11.00;;
27333;SDS011;14817;57.104;-2.094;2023-07-09T09:49:27;23.30;;;11.75;;
27333;SDS011;14817;57.104;-2.094;2023-07-09T09:51:54;22.52;;;11.82;;
27333;SDS011;14817;57.104;-2.094;2023-07-09T09:54:27;25.83;;;10.15;;
27333;SDS011;14817;57.104;-2.094;2023-07-09T09:56:57;21.25;;;9.45;;
27333;SDS011;14817;57.104;-2.094;2023-07-09T09:59:25;16.10;;;9.35;;
27333;SDS011;14817;57.104;-2.094;2023-07-09T10:01:57;51.17;;;34.20;;
27333;SDS011;14817;57.104;-2.094;2023-07-09T10:04:26;28.45;;;11.50;;
27333;SDS011;14817;57.104;-2.094;2023-07-09T10:06:58;32.15;;;15.15;;
27333;SDS011;14817;57.104;-2.094;2023-07-09T10:09:48;25.80;;;10.52;;
27333;SDS011;14817;57.104;-2.094;2023-07-09T10:20:51;22.50;;;12.25;;
27333;SDS011;14817;57.104;-2.094;2023-07-09T10:23:44;16.73;;;10.52;;
27333;SDS011;14817;57.104;-2.094;2023-07-09T10:26:30;22.65;;;12.32;;
27333;SDS011;14817;57.104;-2.094;2023-07-09T10:35:32;17.83;;;11.43;;
27333;SDS011;14817;57.104;-2.094;2023-07-09T10:40:14;19.20;;;12.57;;
27333;SDS011;14817;57.104;-2.094;2023-07-09T10:42:48;17.60;;;11.02;;
27333;SDS011;14817;57.104;-2.094;2023-07-09T10:45:39;15.65;;;11.02;;
27333;SDS011;14817;57.104;-2.094;2023-07-09T10:50:44;13.85;;;8.70;;
27333;SDS011;14817;57.104;-2.094;2023-07-09T10:53:38;11.93;;;8.82;;
27333;SDS011;14817;57.104;-2.094;2023-07-09T10:56:21;15.95;;;10.25;;
27333;SDS011;14817;57.104;-2.094;2023-07-09T11:01:29;13.77;;;9.60;;
27333;SDS011;14817;57.104;-2.094;2023-07-09T11:04:00;12.35;;;8.52;;
27333;SDS011;14817;57.104;-2.094;2023-07-09T11:06:32;11.88;;;8.57;;
27333;SDS011;14817;57.104;-2.094;2023-07-09T11:09:07;11.90;;;9.27;;
27333;SDS011;14817;57.104;-2.094;2023-07-09T11:11:45;10.25;;;8.20;;
27333;SDS011;14817;57.104;-2.094;2023-07-09T11:14:27;10.05;;;7.28;;
27333;SDS011;14817;57.104;-2.094;2023-07-09T11:17:03;12.57;;;8.57;;
27333;SDS011;14817;57.104;-2.094;2023-07-09T11:19:40;11.05;;;9.00;;
27333;SDS011;14817;57.104;-2.094;2023-07-09T11:22:16;8.45;;;7.28;;
27333;SDS011;14817;57.104;-2.094;2023-07-09T11:24:49;9.80;;;7.18;;
27333;SDS011;14817;57.104;-2.094;2023-07-09T11:29:57;10.80;;;8.23;;
27333;SDS011;14817;57.104;-2.094;2023-07-09T11:32:25;9.38;;;7.07;;
27333;SDS011;14817;57.104;-2.094;2023-07-09T11:34:54;9.93;;;8.00;;
27333;SDS011;14817;57.104;-2.094;2023-07-09T11:37:23;9.65;;;7.20;;
27333;SDS011;14817;57.104;-2.094;2023-07-09T11:39:52;9.80;;;7.30;;
27333;SDS011;14817;57.104;-2.094;2023-07-09T11:42:23;10.07;;;7.72;;
27333;SDS011;14817;57.104;-2.094;2023-07-09T11:45:06;10.45;;;8.68;;
27333;SDS011;14817;57.104;-2.094;2023-07-09T11:47:38;12.02;;;8.32;;
27333;SDS011;14817;57.104;-2.094;2023-07-09T11:50:23;16.10;;;10.48;;
27333;SDS011;14817;57.104;-2.094;2023-07-09T11:52:58;17.60;;;13.23;;
27333;SDS011;14817;57.104;-2.094;2023-07-09T11:55:44;13.23;;;9.60;;
27333;SDS011;14817;57.104;-2.094;2023-07-09T11:58:14;10.85;;;8.07;;
27333;SDS011;14817;57.104;-2.094;2023-07-09T12:00:43;13.13;;;8.45;;
27333;SDS011;14817;57.104;-2.094;2023-07-09T12:03:19;13.02;;;8.65;;
27333;SDS011;14817;57.104;-2.094;2023-07-09T12:06:35;14.43;;;8.02;;
27333;SDS011;14817;57.104;-2.094;2023-07-09T12:08:44;11.07;;;7.50;;
27333;SDS011;14817;57.104;-2.094;2023-07-09T12:11:29;9.20;;;6.05;;
27333;SDS011;14817;57.104;-2.094;2023-07-09T12:14:31;8.07;;;5.22;;
27333;SDS011;14817;57.104;-2.094;2023-07-09T12:16:51;5.88;;;4.65;;
27333;SDS011;14817;57.104;-2.094;2023-07-09T12:19:20;8.25;;;6.13;;
27333;SDS011;14817;57.104;-2.094;2023-07-09T12:21:49;11.32;;;8.15;;
27333;SDS011;14817;57.104;-2.094;2023-07-09T12:24:22;12.50;;;6.95;;
27333;SDS011;14817;57.104;-2.094;2023-07-09T12:26:52;9.45;;;7.28;;
27333;SDS011;14817;57.104;-2.094;2023-07-09T12:29:23;10.90;;;7.05;;
27333;SDS011;14817;57.104;-2.094;2023-07-09T12:31:52;11.10;;;7.45;;
27333;SDS011;14817;57.104;-2.094;2023-07-09T12:34:19;9.68;;;6.22;;
27333;SDS011;14817;57.104;-2.094;2023-07-09T12:36:46;9.05;;;5.35;;
27333;SDS011;14817;57.104;-2.094;2023-07-09T12:39:17;10.63;;;5.70;;
27333;SDS011;14817;57.104;-2.094;2023-07-09T12:41:50;9.88;;;5.38;;
27333;SDS011;14817;57.104;-2.094;2023-07-09T12:44:21;8.75;;;4.30;;
27333;SDS011;14817;57.104;-2.094;2023-07-09T12:46:49;6.85;;;3.75;;
27333;SDS011;14817;57.104;-2.094;2023-07-09T12:49:22;5.57;;;3.15;;
27333;SDS011;14817;57.104;-2.094;2023-07-09T12:51:57;8.82;;;3.40;;
27333;SDS011;14817;57.104;-2.094;2023-07-09T12:54:27;5.53;;;2.30;;
27333;SDS011;14817;57.104;-2.094;2023-07-09T12:56:56;7.38;;;2.05;;
27333;SDS011;14817;57.104;-2.094;2023-07-09T12:59:27;5.70;;;2.05;;
27333;SDS011;14817;57.104;-2.094;2023-07-09T13:04:37;5.03;;;1.38;;
27333;SDS011;14817;57.104;-2.094;2023-07-09T13:07:05;4.97;;;1.55;;
27333;SDS011;14817;57.104;-2.094;2023-07-09T13:09:53;5.78;;;1.25;;
27333;SDS011;14817;57.104;-2.094;2023-07-09T13:12:28;5.55;;;1.10;;
27333;SDS011;14817;57.104;-2.094;2023-07-09T13:14:57;5.20;;;1.23;;
27333;SDS011;14817;57.104;-2.094;2023-07-09T13:17:30;3.88;;;1.20;;
27333;SDS011;14817;57.104;-2.094;2023-07-09T13:19:58;3.30;;;0.90;;
27333;SDS011;14817;57.104;-2.094;2023-07-09T13:22:27;5.43;;;1.33;;
27333;SDS011;14817;57.104;-2.094;2023-07-09T13:24:55;5.00;;;1.85;;
27333;SDS011;14817;57.104;-2.094;2023-07-09T13:27:22;6.55;;;1.38;;
27333;SDS011;14817;57.104;-2.094;2023-07-09T13:29:50;4.82;;;1.40;;
27333;SDS011;14817;57.104;-2.094;2023-07-09T13:32:17;7.40;;;1.77;;
27333;SDS011;14817;57.104;-2.094;2023-07-09T13:34:44;5.18;;;1.50;;
27333;SDS011;14817;57.104;-2.094;2023-07-09T13:37:12;8.05;;;1.88;;
27333;SDS011;14817;57.104;-2.094;2023-07-09T13:39:41;4.40;;;1.30;;
27333;SDS011;14817;57.104;-2.094;2023-07-09T13:42:13;5.05;;;1.30;;
27333;SDS011;14817;57.104;-2.094;2023-07-09T13:44:44;4.65;;;1.02;;
27333;SDS011;14817;57.104;-2.094;2023-07-09T13:47:15;2.90;;;1.05;;
27333;SDS011;14817;57.104;-2.094;2023-07-09T13:49:44;6.40;;;1.55;;
27333;SDS011;14817;57.104;-2.094;2023-07-09T13:52:17;8.55;;;1.73;;
27333;SDS011;14817;57.104;-2.094;2023-07-09T13:54:46;3.33;;;1.00;;
27333;SDS011;14817;57.104;-2.094;2023-07-09T13:57:18;7.78;;;1.30;;
27333;SDS011;14817;57.104;-2.094;2023-07-09T13:59:47;4.35;;;1.17;;
27333;SDS011;14817;57.104;-2.094;2023-07-09T14:02:19;5.50;;;1.15;;
27333;SDS011;14817;57.104;-2.094;2023-07-09T14:04:54;4.00;;;1.08;;
27333;SDS011;14817;57.104;-2.094;2023-07-09T14:07:25;5.68;;;1.50;;
27333;SDS011;14817;57.104;-2.094;2023-07-09T14:09:56;3.17;;;1.05;;
27333;SDS011;14817;57.104;-2.094;2023-07-09T14:12:23;4.28;;;1.23;;
27333;SDS011;14817;57.104;-2.094;2023-07-09T14:14:51;4.97;;;1.20;;
27333;SDS011;14817;57.104;-2.094;2023-07-09T14:17:19;3.00;;;1.13;;
27333;SDS011;14817;57.104;-2.094;2023-07-09T14:19:46;4.30;;;1.27;;
27333;SDS011;14817;57.104;-2.094;2023-07-09T14:22:25;7.05;;;1.40;;
27333;SDS011;14817;57.104;-2.094;2023-07-09T14:25:00;5.78;;;1.52;;
27333;SDS011;14817;57.104;-2.094;2023-07-09T14:27:28;6.68;;;1.52;;
27333;SDS011;14817;57.104;-2.094;2023-07-09T14:29:55;5.13;;;1.42;;
27333;SDS011;14817;57.104;-2.094;2023-07-09T14:35:01;9.43;;;1.77;;
27333;SDS011;14817;57.104;-2.094;2023-07-09T14:37:29;5.40;;;1.30;;
27333;SDS011;14817;57.104;-2.094;2023-07-09T14:39:56;5.38;;;1.17;;
27333;SDS011;14817;57.104;-2.094;2023-07-09T14:42:23;6.72;;;1.45;;
27333;SDS011;14817;57.104;-2.094;2023-07-09T14:44:50;2.80;;;1.25;;
27333;SDS011;14817;57.104;-2.094;2023-07-09T14:47:19;3.35;;;0.98;;
27333;SDS011;14817;57.104;-2.094;2023-07-09T14:49:47;6.15;;;0.90;;
27333;SDS011;14817;57.104;-2.094;2023-07-09T14:52:15;6.97;;;0.90;;
27333;SDS011;14817;57.104;-2.094;2023-07-09T14:54:46;8.32;;;2.33;;
27333;SDS011;14817;57.104;-2.094;2023-07-09T14:57:19;5.07;;;1.50;;
27333;SDS011;14817;57.104;-2.094;2023-07-09T14:59:47;4.60;;;1.10;;
27333;SDS011;14817;57.104;-2.094;2023-07-09T15:04:49;4.03;;;1.17;;
27333;SDS011;14817;57.104;-2.094;2023-07-09T15:07:16;10.32;;;3.33;;
27333;SDS011;14817;57.104;-2.094;2023-07-09T15:09:43;7.75;;;1.58;;
27333;SDS011;14817;57.104;-2.094;2023-07-09T15:12:19;4.03;;;1.10;;
27333;SDS011;14817;57.104;-2.094;2023-07-09T15:14:48;4.57;;;0.93;;
27333;SDS011;14817;57.104;-2.094;2023-07-09T15:17:15;4.43;;;0.80;;
27333;SDS011;14817;57.104;-2.094;2023-07-09T15:19:42;3.80;;;1.25;;
27333;SDS011;14817;57.104;-2.094;2023-07-09T15:22:22;3.10;;;0.90;;
27333;SDS011;14817;57.104;-2.094;2023-07-09T15:24:55;2.65;;;0.80;;
27333;SDS011;14817;57.104;-2.094;2023-07-09T15:27:21;2.50;;;0.82;;
27333;SDS011;14817;57.104;-2.094;2023-07-09T15:29:49;5.07;;;1.15;;
27333;SDS011;14817;57.104;-2.094;2023-07-09T15:32:16;1.70;;;0.57;;